createdAt,value
2023-04-25T00:00:02.288Z,72.00
2023-04-25T00:01:02.311Z,72.00
2023-04-25T00:02:03.446Z,72.00
2023-04-25T00:03:03.049Z,72.00
2023-04-25T00:04:03.156Z,72.00
2023-04-25T00:05:03.509Z,72.00
2023-04-25T00:06:02.944Z,72.00
2023-04-25T00:07:02.966Z,73.00
2023-04-25T00:08:02.979Z,73.00
2023-04-25T00:09:02.752Z,73.00
2023-04-25T00:10:02.590Z,73.00
2023-04-25T00:11:02.668Z,73.00
2023-04-25T00:12:02.815Z,73.00
2023-04-25T00:13:02.329Z,73.00
2023-04-25T00:14:02.213Z,73.00
2023-04-25T00:15:02.621Z,73.00
2023-04-25T00:16:02.670Z,73.00
2023-04-25T00:17:02.761Z,73.00
2023-04-25T00:18:02.953Z,72.00
2023-04-25T00:19:02.821Z,72.00
2023-04-25T00:20:02.605Z,72.00
2023-04-25T00:21:02.520Z,72.00
2023-04-25T00:22:02.706Z,72.00
2023-04-25T00:23:02.497Z,72.00
2023-04-25T00:24:02.286Z,72.00
2023-04-25T00:25:02.115Z,72.00
2023-04-25T00:26:02.425Z,72.00
2023-04-25T00:27:02.469Z,72.00
2023-04-25T00:28:02.749Z,72.00
2023-04-25T00:29:02.380Z,72.00
2023-04-25T00:30:02.359Z,72.00
2023-04-25T00:31:02.954Z,72.00
2023-04-25T00:32:02.923Z,72.00
2023-04-25T00:33:02.551Z,72.00
2023-04-25T00:34:02.581Z,72.00
2023-04-25T00:35:02.593Z,71.00
2023-04-25T00:36:03.046Z,71.00
2023-04-25T00:37:03.066Z,71.00
2023-04-25T00:38:03.035Z,71.00
2023-04-25T00:39:03.115Z,72.00
2023-04-25T00:40:02.911Z,72.00
2023-04-25T00:41:02.798Z,72.00
2023-04-25T00:42:02.829Z,72.00
2023-04-25T00:43:02.796Z,72.00
2023-04-25T00:44:02.261Z,71.00
2023-04-25T00:45:02.626Z,71.00
2023-04-25T00:46:02.420Z,71.00
2023-04-25T00:47:03.092Z,72.00
2023-04-25T00:48:03.211Z,73.00
2023-04-25T00:49:03.249Z,71.00
2023-04-25T00:50:03.080Z,71.00
2023-04-25T00:51:03.444Z,70.00
2023-04-25T00:52:03.281Z,70.00
2023-04-25T00:53:03.017Z,70.00
2023-04-25T00:54:03.417Z,70.00
2023-04-25T00:55:03.105Z,70.00
2023-04-25T00:56:03.253Z,70.00
2023-04-25T00:57:02.302Z,71.00
2023-04-25T00:58:02.188Z,72.00
2023-04-25T00:59:02.224Z,73.00
2023-04-25T01:00:02.048Z,73.00
2023-04-25T01:01:02.635Z,74.00
2023-04-25T01:02:02.689Z,72.00
2023-04-25T01:03:02.447Z,72.00
2023-04-25T01:04:02.589Z,72.00
2023-04-25T01:05:02.082Z,72.00
2023-04-25T01:06:02.575Z,72.00
2023-04-25T01:07:02.383Z,71.00
2023-04-25T01:08:02.894Z,71.00
2023-04-25T01:09:02.827Z,70.00
2023-04-25T01:10:02.321Z,71.00
2023-04-25T01:11:02.374Z,71.00
2023-04-25T01:12:02.891Z,71.00
2023-04-25T01:13:03.254Z,71.00
2023-04-25T01:14:03.183Z,71.00
2023-04-25T01:15:03.002Z,71.00
2023-04-25T01:16:03.080Z,72.00
2023-04-25T01:17:03.133Z,73.00
2023-04-25T01:18:02.969Z,72.00
2023-04-25T01:19:02.627Z,72.00
2023-04-25T01:20:02.786Z,71.00
2023-04-25T01:21:02.529Z,71.00
2023-04-25T01:22:02.020Z,71.00
2023-04-25T01:23:01.781Z,71.00
2023-04-25T01:24:02.244Z,71.00
2023-04-25T01:25:02.000Z,71.00
2023-04-25T01:26:02.296Z,71.00
2023-04-25T01:27:02.532Z,72.00
2023-04-25T01:28:02.332Z,71.00
2023-04-25T01:29:02.111Z,72.00
2023-04-25T01:30:02.008Z,72.00
2023-04-25T01:31:02.411Z,72.00
2023-04-25T01:32:03.192Z,72.00
2023-04-25T01:33:03.266Z,73.00
2023-04-25T01:34:02.675Z,74.00
2023-04-25T01:35:02.714Z,75.00
2023-04-25T01:36:03.195Z,75.00
2023-04-25T01:37:02.673Z,75.00
2023-04-25T01:38:02.824Z,74.00
2023-04-25T01:39:03.138Z,75.00
2023-04-25T01:40:02.884Z,76.00
2023-04-25T01:41:03.325Z,76.00
2023-04-25T01:42:02.906Z,76.00
2023-04-25T01:43:02.441Z,75.00
2023-04-25T01:44:02.871Z,75.00
2023-04-25T01:45:02.837Z,75.00
2023-04-25T01:46:02.465Z,75.00
2023-04-25T01:47:02.970Z,76.00
2023-04-25T01:48:03.209Z,75.00
2023-04-25T01:49:03.075Z,75.00
2023-04-25T01:50:03.190Z,75.00
2023-04-25T01:51:03.299Z,75.00
2023-04-25T01:52:02.344Z,75.00
2023-04-25T01:53:02.280Z,75.00
2023-04-25T01:54:02.174Z,75.00
2023-04-25T01:55:02.013Z,75.00
2023-04-25T01:56:01.982Z,75.00
2023-04-25T01:57:02.704Z,75.00
2023-04-25T01:58:02.423Z,75.00
2023-04-25T01:59:02.844Z,75.00
2023-04-25T02:00:03.025Z,75.00
2023-04-25T02:01:02.704Z,75.00
2023-04-25T02:02:02.439Z,75.00
2023-04-25T02:03:02.041Z,75.00
2023-04-25T02:04:02.306Z,74.00
2023-04-25T02:05:02.304Z,75.00
2023-04-25T02:06:02.331Z,75.00
2023-04-25T02:07:02.764Z,76.00
2023-04-25T02:08:02.512Z,76.00
2023-04-25T02:09:02.895Z,76.00
2023-04-25T02:10:02.447Z,76.00
2023-04-25T02:11:02.877Z,76.00
2023-04-25T02:12:02.300Z,76.00
2023-04-25T02:13:02.500Z,77.00
2023-04-25T02:14:01.931Z,78.00
2023-04-25T02:15:02.432Z,78.00
2023-04-25T02:16:01.992Z,78.00
2023-04-25T02:17:02.322Z,78.00
2023-04-25T02:18:02.184Z,78.00
2023-04-25T02:19:02.443Z,77.00
2023-04-25T02:20:02.423Z,78.00
2023-04-25T02:21:02.621Z,77.00
2023-04-25T02:22:02.595Z,77.00
2023-04-25T02:23:02.403Z,77.00
2023-04-25T02:24:03.048Z,77.00
2023-04-25T02:25:02.562Z,76.00
2023-04-25T02:26:02.932Z,76.00
2023-04-25T02:27:01.967Z,76.00
2023-04-25T02:28:02.223Z,77.00
2023-04-25T02:29:02.246Z,77.00
2023-04-25T02:30:02.235Z,77.00
2023-04-25T02:31:02.238Z,77.00
2023-04-25T02:32:02.463Z,78.00
2023-04-25T02:33:02.266Z,79.00
2023-04-25T02:34:02.791Z,80.00
2023-04-25T02:35:02.284Z,80.00
2023-04-25T02:36:02.587Z,80.00
2023-04-25T02:37:02.972Z,81.00
2023-04-25T02:38:03.147Z,81.00
2023-04-25T02:39:02.536Z,81.00
2023-04-25T02:40:03.134Z,81.00
2023-04-25T02:41:02.965Z,81.00
2023-04-25T02:42:02.470Z,81.00
2023-04-25T02:43:01.937Z,81.00
2023-04-25T02:44:01.857Z,81.00
2023-04-25T02:45:02.486Z,81.00
2023-04-25T02:46:02.149Z,81.00
2023-04-25T02:47:03.174Z,81.00
2023-04-25T02:48:02.803Z,81.00
2023-04-25T02:49:02.575Z,80.00
2023-04-25T02:50:02.617Z,80.00
2023-04-25T02:51:02.907Z,79.00
2023-04-25T02:52:02.182Z,79.00
2023-04-25T02:53:02.057Z,79.00
2023-04-25T02:54:02.184Z,79.00
2023-04-25T02:55:01.958Z,79.00
2023-04-25T02:56:01.995Z,79.00
2023-04-25T02:57:03.051Z,79.00
2023-04-25T02:58:02.457Z,79.00
2023-04-25T02:59:02.899Z,78.00
2023-04-25T03:00:02.509Z,78.00
2023-04-25T03:01:02.474Z,78.00
2023-04-25T03:02:03.618Z,78.00
2023-04-25T03:03:03.097Z,78.00
2023-04-25T03:04:03.006Z,78.00
2023-04-25T03:05:03.428Z,78.00
2023-04-25T03:06:03.172Z,78.00
2023-04-25T03:07:02.745Z,78.00
2023-04-25T03:08:03.223Z,78.00
2023-04-25T03:09:02.813Z,78.00
2023-04-25T03:10:03.234Z,77.00
2023-04-25T03:11:02.771Z,78.00
2023-04-25T03:12:03.030Z,78.00
2023-04-25T03:13:03.370Z,77.00
2023-04-25T03:14:02.860Z,77.00
2023-04-25T03:15:03.286Z,76.00
2023-04-25T03:16:03.071Z,76.00
2023-04-25T03:17:02.586Z,76.00
2023-04-25T03:18:02.396Z,76.00
2023-04-25T03:19:02.850Z,75.00
2023-04-25T03:20:02.664Z,75.00
2023-04-25T03:21:02.459Z,75.00
2023-04-25T03:22:02.830Z,74.00
2023-04-25T03:23:02.895Z,75.00
2023-04-25T03:24:03.328Z,74.00
2023-04-25T03:25:03.067Z,74.00
2023-04-25T03:26:03.325Z,74.00
2023-04-25T03:27:02.508Z,74.00
2023-04-25T03:28:02.955Z,73.00
2023-04-25T03:29:02.856Z,73.00
2023-04-25T03:30:02.686Z,76.00
2023-04-25T03:31:02.454Z,75.00
2023-04-25T03:32:03.017Z,75.00
2023-04-25T03:33:02.836Z,75.00
2023-04-25T03:34:03.391Z,76.00
2023-04-25T03:35:03.345Z,77.00
2023-04-25T03:36:03.221Z,77.00
2023-04-25T03:37:03.257Z,76.00
2023-04-25T03:38:03.117Z,75.00
2023-04-25T03:39:03.428Z,75.00
2023-04-25T03:40:03.158Z,75.00
2023-04-25T03:41:03.391Z,74.00
2023-04-25T03:42:03.615Z,74.00
2023-04-25T03:43:03.504Z,73.00
2023-04-25T03:44:03.381Z,73.00
2023-04-25T03:45:03.083Z,73.00
2023-04-25T03:46:03.177Z,74.00
2023-04-25T03:47:03.184Z,74.00
2023-04-25T03:48:02.620Z,73.00
2023-04-25T03:49:02.524Z,73.00
2023-04-25T03:50:02.956Z,74.00
2023-04-25T03:51:02.665Z,74.00
2023-04-25T03:52:03.088Z,74.00
2023-04-25T03:53:03.031Z,74.00
2023-04-25T03:54:03.375Z,74.00
2023-04-25T03:55:03.054Z,74.00
2023-04-25T03:56:03.062Z,74.00
2023-04-25T03:57:03.098Z,74.00
2023-04-25T03:58:03.057Z,74.00
2023-04-25T03:59:03.035Z,74.00
2023-04-25T04:00:02.760Z,74.00
2023-04-25T04:01:02.436Z,74.00
2023-04-25T04:02:02.394Z,74.00
2023-04-25T04:03:02.093Z,73.00
2023-04-25T04:04:02.373Z,73.00
2023-04-25T04:05:02.285Z,74.00
2023-04-25T04:06:02.461Z,74.00
2023-04-25T04:07:02.324Z,75.00
2023-04-25T04:08:02.305Z,76.00
2023-04-25T04:09:02.073Z,77.00
2023-04-25T04:10:02.354Z,77.00
2023-04-25T04:11:02.206Z,77.00
2023-04-25T04:12:01.961Z,76.00
2023-04-25T04:13:01.806Z,76.00
2023-04-25T04:14:01.653Z,76.00
2023-04-25T04:15:01.479Z,76.00
2023-04-25T04:16:01.883Z,75.00
2023-04-25T04:17:01.708Z,76.00
2023-04-25T04:18:01.633Z,76.00
2023-04-25T04:19:02.173Z,77.00
2023-04-25T04:20:01.760Z,78.00
2023-04-25T04:21:01.627Z,79.00
2023-04-25T04:22:02.154Z,79.00
2023-04-25T04:23:01.980Z,79.00
2023-04-25T04:24:01.906Z,79.00
2023-04-25T04:25:01.891Z,79.00
2023-04-25T04:26:02.211Z,79.00
2023-04-25T04:27:02.160Z,79.00
2023-04-25T04:28:02.811Z,79.00
2023-04-25T04:29:02.410Z,80.00
2023-04-25T04:30:02.301Z,79.00
2023-04-25T04:31:02.263Z,79.00
2023-04-25T04:32:01.452Z,78.00
2023-04-25T04:33:01.704Z,78.00
2023-04-25T04:34:01.896Z,78.00
2023-04-25T04:35:01.494Z,78.00
2023-04-25T04:36:01.641Z,78.00
2023-04-25T04:37:01.921Z,78.00
2023-04-25T04:38:02.096Z,78.00
2023-04-25T04:39:01.649Z,78.00
2023-04-25T04:40:01.585Z,78.00
2023-04-25T04:41:01.678Z,78.00
2023-04-25T04:42:01.884Z,78.00
2023-04-25T04:43:02.258Z,78.00
2023-04-25T04:44:02.187Z,78.00
2023-04-25T04:45:02.323Z,78.00
2023-04-25T04:46:02.032Z,78.00
2023-04-25T04:47:02.440Z,78.00
2023-04-25T04:48:02.499Z,79.00
2023-04-25T04:49:01.992Z,79.00
2023-04-25T04:50:02.064Z,79.00
2023-04-25T04:51:02.420Z,79.00
2023-04-25T04:52:02.045Z,79.00
2023-04-25T04:53:01.882Z,79.00
2023-04-25T04:54:01.824Z,79.00
2023-04-25T04:55:01.490Z,79.00
2023-04-25T04:56:02.096Z,79.00
2023-04-25T04:57:02.150Z,79.00
2023-04-25T04:58:02.075Z,79.00
2023-04-25T04:59:02.395Z,79.00
2023-04-25T05:00:02.038Z,80.00
2023-04-25T05:01:02.458Z,80.00
2023-04-25T05:02:02.261Z,81.00
2023-04-25T05:03:02.558Z,81.00
2023-04-25T05:04:02.603Z,81.00
2023-04-25T05:05:02.672Z,81.00
2023-04-25T05:06:02.863Z,81.00
2023-04-25T05:07:03.243Z,82.00
2023-04-25T05:08:03.061Z,81.00
2023-04-25T05:09:02.817Z,82.00
2023-04-25T05:10:03.089Z,82.00
2023-04-25T05:11:03.227Z,81.00
2023-04-25T05:12:03.493Z,81.00
2023-04-25T05:13:03.169Z,81.00
2023-04-25T05:14:03.430Z,81.00
2023-04-25T05:15:03.144Z,81.00
2023-04-25T05:16:03.753Z,81.00
2023-04-25T05:17:03.699Z,81.00
2023-04-25T05:18:03.335Z,81.00
2023-04-25T05:19:03.695Z,81.00
2023-04-25T05:20:03.636Z,81.00
2023-04-25T05:21:03.429Z,81.00
2023-04-25T05:22:03.241Z,81.00
2023-04-25T05:23:03.178Z,81.00
2023-04-25T05:24:02.994Z,81.00
2023-04-25T05:25:02.777Z,81.00
2023-04-25T05:26:02.936Z,80.00
2023-04-25T05:27:03.452Z,81.00
2023-04-25T05:28:03.009Z,81.00
2023-04-25T05:29:03.196Z,81.00
2023-04-25T05:30:03.131Z,81.00
2023-04-25T05:31:03.300Z,81.00
2023-04-25T05:32:03.350Z,81.00
2023-04-25T05:33:03.182Z,81.00
2023-04-25T05:34:03.544Z,81.00
2023-04-25T05:35:03.588Z,81.00
2023-04-25T05:36:03.382Z,81.00
2023-04-25T05:37:02.317Z,81.00
2023-04-25T05:38:02.707Z,81.00
2023-04-25T05:39:02.122Z,80.00
2023-04-25T05:40:02.503Z,81.00
2023-04-25T05:41:02.745Z,80.00
2023-04-25T05:42:03.068Z,80.00
2023-04-25T05:43:02.930Z,81.00
2023-04-25T05:44:02.840Z,81.00
2023-04-25T05:45:02.944Z,81.00
2023-04-25T05:46:03.026Z,81.00
2023-04-25T05:47:02.899Z,80.00
2023-04-25T05:48:03.249Z,80.00
2023-04-25T05:49:03.255Z,80.00
2023-04-25T05:50:02.930Z,80.00
2023-04-25T05:51:03.021Z,80.00
2023-04-25T05:52:02.392Z,80.00
2023-04-25T05:53:02.629Z,81.00
2023-04-25T05:54:02.781Z,80.00
2023-04-25T05:55:02.603Z,80.00
2023-04-25T05:56:02.438Z,80.00
2023-04-25T05:57:03.162Z,81.00
2023-04-25T05:58:03.318Z,81.00
2023-04-25T05:59:02.905Z,81.00
2023-04-25T06:00:03.026Z,80.00
2023-04-25T06:01:02.978Z,80.00
2023-04-25T06:02:02.147Z,80.00
2023-04-25T06:03:02.702Z,80.00
2023-04-25T06:04:02.882Z,80.00
2023-04-25T06:05:02.554Z,80.00
2023-04-25T06:06:02.337Z,80.00
2023-04-25T06:07:02.217Z,81.00
2023-04-25T06:08:02.436Z,80.00
2023-04-25T06:09:02.130Z,80.00
2023-04-25T06:10:02.141Z,80.00
2023-04-25T06:11:02.537Z,80.00
2023-04-25T06:12:02.909Z,80.00
2023-04-25T06:13:02.912Z,81.00
2023-04-25T06:14:02.990Z,81.00
2023-04-25T06:15:06.283Z,81.00
2023-04-25T06:16:03.202Z,81.00
2023-04-25T06:17:02.560Z,80.00
2023-04-25T06:18:02.490Z,80.00
2023-04-25T06:19:02.605Z,80.00
2023-04-25T06:20:04.566Z,80.00
2023-04-25T06:21:02.280Z,81.00
2023-04-25T06:22:02.699Z,80.00
2023-04-25T06:23:02.881Z,80.00
2023-04-25T06:24:02.886Z,79.00
2023-04-25T06:25:02.869Z,79.00
2023-04-25T06:26:02.806Z,79.00
2023-04-25T06:27:02.337Z,78.00
2023-04-25T06:28:02.633Z,77.00
2023-04-25T06:29:02.180Z,77.00
2023-04-25T06:30:02.686Z,76.00
2023-04-25T06:31:02.655Z,76.00
2023-04-25T06:32:02.281Z,76.00
2023-04-25T06:33:02.169Z,77.00
2023-04-25T06:34:02.479Z,77.00
2023-04-25T06:35:02.204Z,76.00
2023-04-25T06:36:02.355Z,76.00
2023-04-25T06:37:02.957Z,76.00
2023-04-25T06:38:02.863Z,76.00
2023-04-25T06:39:02.570Z,76.00
2023-04-25T06:40:02.765Z,76.00
2023-04-25T06:41:02.647Z,76.00
2023-04-25T06:42:02.273Z,76.00
2023-04-25T06:43:02.569Z,76.00
2023-04-25T06:44:02.521Z,76.00
2023-04-25T06:45:02.509Z,75.00
2023-04-25T06:46:02.007Z,75.00
2023-04-25T06:47:02.633Z,75.00
2023-04-25T06:48:02.418Z,75.00
2023-04-25T06:49:02.173Z,75.00
2023-04-25T06:50:02.467Z,75.00
2023-04-25T06:51:02.349Z,74.00
2023-04-25T06:52:02.854Z,74.00
2023-04-25T06:53:02.587Z,75.00
2023-04-25T06:54:02.390Z,74.00
2023-04-25T06:55:02.732Z,74.00
2023-04-25T06:56:02.736Z,74.00
2023-04-25T06:57:02.280Z,74.00
2023-04-25T06:58:02.108Z,74.00
2023-04-25T06:59:01.800Z,73.00
2023-04-25T07:00:02.457Z,73.00
2023-04-25T07:01:02.398Z,74.00
2023-04-25T07:02:02.526Z,72.00
2023-04-25T07:03:02.929Z,73.00
2023-04-25T07:04:03.073Z,73.00
2023-04-25T07:05:02.221Z,73.00
2023-04-25T07:06:02.852Z,72.00
2023-04-25T07:07:02.133Z,69.00
2023-04-25T07:08:02.309Z,70.00
2023-04-25T07:09:01.755Z,70.00
2023-04-25T07:10:02.495Z,70.00
2023-04-25T07:11:02.176Z,68.00
2023-04-25T07:12:02.553Z,68.00
2023-04-25T07:13:02.658Z,68.00
2023-04-25T07:14:02.188Z,69.00
2023-04-25T07:15:02.316Z,69.00
2023-04-25T07:16:02.430Z,69.00
2023-04-25T07:17:02.259Z,69.00
2023-04-25T07:18:02.526Z,68.00
2023-04-25T07:19:02.215Z,69.00
2023-04-25T07:20:02.620Z,69.00
2023-04-25T07:21:02.346Z,68.00
2023-04-25T07:22:02.952Z,69.00
2023-04-25T07:23:02.566Z,69.00
2023-04-25T07:24:02.451Z,68.00
2023-04-25T07:25:02.334Z,68.00
2023-04-25T07:26:02.752Z,69.00
2023-04-25T07:27:02.779Z,69.00
2023-04-25T07:28:02.414Z,68.00
2023-04-25T07:29:02.562Z,68.00
2023-04-25T07:30:02.706Z,67.00
2023-04-25T07:31:02.640Z,67.00
2023-04-25T07:32:01.932Z,67.00
2023-04-25T07:33:02.112Z,66.00
2023-04-25T07:34:02.283Z,66.00
2023-04-25T07:35:01.956Z,67.00
2023-04-25T07:36:01.923Z,67.00
2023-04-25T07:37:01.984Z,66.00
2023-04-25T07:38:02.324Z,65.00
2023-04-25T07:39:02.177Z,65.00
2023-04-25T07:40:02.212Z,64.00
2023-04-25T07:41:02.264Z,63.00
2023-04-25T07:42:02.929Z,62.00
2023-04-25T07:43:02.347Z,61.00
2023-04-25T07:44:02.941Z,62.00
2023-04-25T07:45:02.819Z,62.00
2023-04-25T07:46:02.367Z,62.00
2023-04-25T07:47:04.320Z,62.00
2023-04-25T07:48:01.723Z,62.00
2023-04-25T07:49:02.012Z,62.00
2023-04-25T07:50:01.809Z,62.00
2023-04-25T07:51:02.119Z,62.00
2023-04-25T07:52:02.148Z,63.00
2023-04-25T07:53:02.315Z,63.00
2023-04-25T07:54:01.848Z,63.00
2023-04-25T07:56:01.821Z,61.00
2023-04-25T07:57:02.635Z,62.00
2023-04-25T07:58:02.282Z,62.00
2023-04-25T07:59:02.679Z,62.00
2023-04-25T08:00:02.259Z,61.00
2023-04-25T08:01:02.633Z,60.00
2023-04-25T08:02:02.678Z,60.00
2023-04-25T08:03:02.655Z,59.00
2023-04-25T08:04:02.712Z,59.00
2023-04-25T08:05:02.716Z,59.00
2023-04-25T08:06:04.852Z,59.00
2023-04-25T08:07:03.297Z,59.00
2023-04-25T08:08:02.901Z,59.00
2023-04-25T08:09:03.052Z,59.00
2023-04-25T08:10:03.434Z,59.00
2023-04-25T08:11:02.870Z,58.00
2023-04-25T08:12:02.405Z,58.00
2023-04-25T08:13:02.613Z,58.00
2023-04-25T08:14:02.667Z,58.00
2023-04-25T08:15:02.953Z,59.00
2023-04-25T08:16:02.596Z,58.00
2023-04-25T08:17:03.081Z,59.00
2023-04-25T08:18:03.339Z,59.00
2023-04-25T08:19:03.356Z,58.00
2023-04-25T08:20:03.430Z,59.00
2023-04-25T08:21:02.914Z,59.00
2023-04-25T08:22:02.927Z,60.00
2023-04-25T08:23:02.786Z,58.00
2023-04-25T08:24:02.829Z,59.00
2023-04-25T08:25:02.837Z,60.00
2023-04-25T08:26:02.540Z,58.00
2023-04-25T08:27:02.853Z,58.00
2023-04-25T08:28:02.925Z,56.00
2023-04-25T08:29:02.933Z,57.00
2023-04-25T08:30:02.886Z,57.00
2023-04-25T08:31:03.277Z,58.00
2023-04-25T08:32:02.914Z,56.00
2023-04-25T08:33:02.325Z,56.00
2023-04-25T08:34:02.514Z,57.00
2023-04-25T08:35:02.791Z,56.00
2023-04-25T08:36:02.762Z,56.00
2023-04-25T08:37:02.610Z,56.00
2023-04-25T08:38:02.985Z,57.00
2023-04-25T08:39:02.929Z,57.00
2023-04-25T08:40:02.755Z,58.00
2023-04-25T08:41:02.745Z,58.00
2023-04-25T08:42:01.989Z,58.00
2023-04-25T08:43:02.124Z,58.00
2023-04-25T08:44:02.115Z,58.00
2023-04-25T08:45:03.606Z,58.00
2023-04-25T08:46:02.471Z,58.00
2023-04-25T08:47:02.224Z,58.00
2023-04-25T08:48:02.171Z,58.00
2023-04-25T08:49:02.713Z,58.00
2023-04-25T08:50:02.156Z,58.00
2023-04-25T08:51:02.688Z,58.00
2023-04-25T08:52:02.374Z,57.00
2023-04-25T08:53:02.516Z,58.00
2023-04-25T08:54:09.462Z,57.00
2023-04-25T08:55:02.626Z,57.00
2023-04-25T08:56:02.258Z,57.00
2023-04-25T08:57:02.427Z,56.00
2023-04-25T08:58:02.765Z,56.00
2023-04-25T08:59:02.874Z,56.00
2023-04-25T09:00:02.887Z,54.00
2023-04-25T09:01:02.447Z,54.00
2023-04-25T09:02:02.440Z,54.00
2023-04-25T09:03:02.586Z,53.00
2023-04-25T09:04:02.313Z,53.00
2023-04-25T09:05:02.051Z,54.00
2023-04-25T09:06:02.545Z,53.00
2023-04-25T09:07:02.383Z,53.00
2023-04-25T09:08:02.752Z,54.00
2023-04-25T09:09:02.948Z,53.00
2023-04-25T09:10:02.849Z,53.00
2023-04-25T09:11:02.720Z,52.00
2023-04-25T09:12:02.000Z,51.00
2023-04-25T09:13:02.146Z,53.00
2023-04-25T09:14:02.615Z,53.00
2023-04-25T09:15:02.155Z,52.00
2023-04-25T09:16:02.152Z,53.00
2023-04-25T09:17:02.687Z,51.00
2023-04-25T09:18:02.468Z,52.00
2023-04-25T09:19:02.514Z,51.00
2023-04-25T09:20:02.343Z,52.00
2023-04-25T09:21:07.521Z,52.00
2023-04-25T09:22:02.401Z,53.00
2023-04-25T09:23:02.711Z,51.00
2023-04-25T09:24:02.645Z,52.00
2023-04-25T09:25:02.460Z,52.00
2023-04-25T09:26:02.874Z,51.00
2023-04-25T09:27:02.092Z,52.00
2023-04-25T09:28:02.070Z,53.00
2023-04-25T09:29:02.544Z,50.00
2023-04-25T09:30:02.146Z,51.00
2023-04-25T09:31:01.998Z,50.00
2023-04-25T09:32:02.219Z,49.00
2023-04-25T09:33:02.670Z,51.00
2023-04-25T09:34:02.650Z,51.00
2023-04-25T09:35:02.353Z,51.00
2023-04-25T09:36:02.341Z,50.00
2023-04-25T09:37:02.732Z,49.00
2023-04-25T09:38:02.677Z,49.00
2023-04-25T09:39:02.532Z,50.00
2023-04-25T09:40:02.797Z,50.00
2023-04-25T09:41:02.756Z,50.00
2023-04-25T09:42:02.403Z,50.00
2023-04-25T09:43:02.248Z,50.00
2023-04-25T09:44:03.555Z,51.00
2023-04-25T09:45:02.752Z,51.00
2023-04-25T09:46:02.423Z,51.00
2023-04-25T09:47:02.193Z,52.00
2023-04-25T09:48:02.226Z,51.00
2023-04-25T09:49:01.885Z,51.00
2023-04-25T09:50:01.991Z,51.00
2023-04-25T09:51:01.848Z,52.00
2023-04-25T09:52:02.631Z,51.00
2023-04-25T09:53:02.242Z,52.00
2023-04-25T09:54:02.453Z,51.00
2023-04-25T09:55:02.652Z,52.00
2023-04-25T09:56:02.811Z,52.00
2023-04-25T09:57:02.675Z,52.00
2023-04-25T09:58:02.448Z,53.00
2023-04-25T09:59:02.466Z,52.00
2023-04-25T10:00:02.874Z,53.00
2023-04-25T10:01:02.487Z,53.00
2023-04-25T10:02:02.191Z,52.00
2023-04-25T10:03:02.035Z,53.00
2023-04-25T10:04:02.710Z,53.00
2023-04-25T10:05:02.449Z,52.00
2023-04-25T10:06:02.153Z,53.00
2023-04-25T10:07:02.527Z,52.00
2023-04-25T10:08:02.815Z,53.00
2023-04-25T10:09:02.436Z,53.00
2023-04-25T10:10:02.815Z,53.00
2023-04-25T10:11:02.455Z,53.00
2023-04-25T10:12:02.189Z,53.00
2023-04-25T10:13:02.188Z,53.00
2023-04-25T10:14:01.892Z,52.00
2023-04-25T10:15:02.128Z,53.00
2023-04-25T10:16:02.152Z,54.00
2023-04-25T10:17:02.356Z,52.00
2023-04-25T10:18:02.821Z,52.00
2023-04-25T10:19:02.697Z,53.00
2023-04-25T10:20:02.871Z,52.00
2023-04-25T10:21:02.388Z,53.00
2023-04-25T10:22:02.901Z,53.00
2023-04-25T10:23:02.902Z,51.00
2023-04-25T10:24:02.774Z,52.00
2023-04-25T10:25:02.705Z,52.00
2023-04-25T10:26:02.878Z,52.00
2023-04-25T10:27:02.519Z,52.00
2023-04-25T10:28:02.479Z,51.00
2023-04-25T10:29:02.163Z,51.00
2023-04-25T10:30:02.092Z,51.00
2023-04-25T10:31:02.259Z,52.00
2023-04-25T10:32:02.974Z,51.00
2023-04-25T10:33:02.862Z,52.00
2023-04-25T10:34:02.597Z,52.00
2023-04-25T10:35:02.620Z,51.00
2023-04-25T10:36:02.864Z,51.00
2023-04-25T10:37:02.901Z,51.00
2023-04-25T10:38:02.856Z,50.00
2023-04-25T10:39:02.985Z,49.00
2023-04-25T10:40:02.802Z,50.00
2023-04-25T10:41:03.109Z,50.00
2023-04-25T10:42:02.193Z,49.00
2023-04-25T10:43:01.780Z,49.00
2023-04-25T10:44:02.183Z,50.00
2023-04-25T10:45:01.721Z,50.00
2023-04-25T10:46:01.984Z,50.00
2023-04-25T10:47:02.475Z,50.00
2023-04-25T10:48:02.350Z,50.00
2023-04-25T10:49:02.457Z,49.00
2023-04-25T10:50:02.186Z,49.00
2023-04-25T10:51:01.987Z,49.00
2023-04-25T10:52:02.185Z,49.00
2023-04-25T10:53:02.249Z,48.00
2023-04-25T10:54:02.601Z,48.00
2023-04-25T10:55:02.261Z,48.00
2023-04-25T10:56:02.324Z,48.00
2023-04-25T10:57:02.850Z,49.00
2023-04-25T10:58:02.547Z,48.00
2023-04-25T10:59:02.413Z,49.00
2023-04-25T11:00:02.600Z,48.00
2023-04-25T11:01:02.541Z,48.00
2023-04-25T11:02:03.365Z,48.00
2023-04-25T11:03:03.118Z,48.00
2023-04-25T11:04:03.409Z,48.00
2023-04-25T11:05:03.290Z,49.00
2023-04-25T11:06:03.104Z,49.00
2023-04-25T11:07:07.187Z,48.00
2023-04-25T11:08:08.244Z,48.00
2023-04-25T11:09:03.795Z,48.00
2023-04-25T11:10:03.451Z,48.00
2023-04-25T11:11:03.877Z,49.00
2023-04-25T11:12:03.267Z,50.00
2023-04-25T11:13:03.260Z,50.00
2023-04-25T11:14:03.347Z,50.00
2023-04-25T11:15:03.501Z,50.00
2023-04-25T11:16:12.377Z,50.00
2023-04-25T11:17:02.885Z,50.00
2023-04-25T11:18:02.903Z,50.00
2023-04-25T11:19:03.410Z,50.00
2023-04-25T11:20:03.208Z,50.00
2023-04-25T11:21:02.832Z,50.00
2023-04-25T11:22:02.975Z,50.00
2023-04-25T11:24:02.911Z,51.00
2023-04-25T11:25:02.543Z,51.00
2023-04-25T11:26:02.444Z,51.00
2023-04-25T11:27:03.436Z,51.00
2023-04-25T11:28:03.397Z,51.00
2023-04-25T11:29:02.880Z,51.00
2023-04-25T11:30:03.426Z,51.00
2023-04-25T11:31:02.940Z,51.00
2023-04-25T11:32:03.827Z,51.00
2023-04-25T11:33:03.809Z,51.00
2023-04-25T11:34:03.239Z,52.00
2023-04-25T11:35:03.582Z,52.00
2023-04-25T11:36:03.606Z,51.00
2023-04-25T11:37:02.332Z,53.00
2023-04-25T11:38:03.020Z,54.00
2023-04-25T11:39:02.408Z,54.00
2023-04-25T11:40:02.464Z,51.00
2023-04-25T11:41:02.688Z,51.00
2023-04-25T11:42:03.270Z,49.00
2023-04-25T11:43:03.155Z,48.00
2023-04-25T11:44:02.891Z,48.00
2023-04-25T11:45:02.844Z,47.00
2023-04-25T11:46:02.928Z,47.00
2023-04-25T11:47:03.219Z,47.00
2023-04-25T11:48:03.900Z,47.00
2023-04-25T11:49:03.332Z,48.00
2023-04-25T11:50:03.298Z,47.00
2023-04-25T11:51:03.671Z,47.00
2023-04-25T11:52:03.932Z,45.00
2023-04-25T11:53:03.210Z,45.00
2023-04-25T11:54:02.945Z,45.00
2023-04-25T11:55:03.183Z,45.00
2023-04-25T11:56:03.111Z,44.00
2023-04-25T11:57:03.414Z,44.00
2023-04-25T11:58:02.790Z,45.00
2023-04-25T11:59:02.980Z,44.00
2023-04-25T12:00:02.934Z,44.00
2023-04-25T12:01:02.897Z,44.00
2023-04-25T12:02:02.766Z,45.00
2023-04-25T12:03:02.814Z,45.00
2023-04-25T12:04:03.017Z,44.00
2023-04-25T12:05:15.874Z,45.00
2023-04-25T12:06:02.616Z,45.00
2023-04-25T12:07:02.571Z,45.00
2023-04-25T12:08:02.549Z,45.00
2023-04-25T12:09:02.295Z,46.00
2023-04-25T12:10:02.412Z,44.00
2023-04-25T12:11:02.322Z,44.00
2023-04-25T12:12:02.821Z,44.00
2023-04-25T12:13:03.546Z,44.00
2023-04-25T12:14:02.908Z,44.00
2023-04-25T12:15:02.741Z,45.00
2023-04-25T12:16:03.113Z,44.00
2023-04-25T12:17:03.036Z,44.00
2023-04-25T12:18:02.296Z,45.00
2023-04-25T12:19:01.911Z,44.00
2023-04-25T12:20:01.778Z,44.00
2023-04-25T12:21:01.847Z,45.00
2023-04-25T12:22:02.303Z,45.00
2023-04-25T12:23:01.996Z,45.00
2023-04-25T12:24:01.976Z,46.00
2023-04-25T12:25:01.945Z,45.00
2023-04-25T12:26:01.915Z,45.00
2023-04-25T12:27:01.704Z,45.00
2023-04-25T12:28:02.519Z,45.00
2023-04-25T12:29:02.387Z,45.00
2023-04-25T12:30:02.756Z,45.00
2023-04-25T12:31:02.389Z,44.00
2023-04-25T12:32:02.523Z,45.00
2023-04-25T12:33:02.251Z,44.00
2023-04-25T12:34:01.896Z,44.00
2023-04-25T12:35:02.356Z,43.00
2023-04-25T12:36:03.893Z,44.00
2023-04-25T12:37:01.885Z,45.00
2023-04-25T12:38:02.316Z,45.00
2023-04-25T12:39:02.232Z,45.00
2023-04-25T12:40:02.478Z,44.00
2023-04-25T12:41:02.665Z,45.00
2023-04-25T12:42:02.763Z,46.00
2023-04-25T12:43:02.322Z,45.00
2023-04-25T12:44:02.255Z,46.00
2023-04-25T12:45:02.283Z,46.00
2023-04-25T12:46:01.910Z,44.00
2023-04-25T12:47:01.886Z,44.00
2023-04-25T12:48:04.150Z,42.00
2023-04-25T12:49:17.264Z,42.00
2023-04-25T12:50:02.754Z,40.00
2023-04-25T12:51:02.595Z,41.00
2023-04-25T12:52:02.953Z,42.00
2023-04-25T12:53:02.640Z,41.00
2023-04-25T12:54:02.488Z,41.00